Newport, OR (97365)

7:08 PM PDT on September 01, 2014 (GMT -0700)
Beverly Beach, Newport, Oregon | Change Station
CLOSE
Current Station
Personal Weather Station
Location: Newport, OR
Elevation: 108 ft
Nearby Weather Stations

Elev 108 ft 44.72 °N, 124.06 °W | Updated 3 minutes ago

Clear
Clear
66.9 °F
Feels Like 66.9 °F
N
9.0
Wind Variable Wind from NNW
Gusts 14.0 mph

Today
High -- | Low -- °F
--% Chance of Precip.
Yesterday
High -- | Low -- °F
Precip. -- in
6:38 AM 7:52 PM
Waxing Crescent, 46% visible
Pressure 30.04 in
Visibility 10.0 miles
Clouds Clear
Dew Point 62 °F
Humidity 85%
Rainfall 0.00 in
Snow Depth Not available.
UV 1 out of 12
Pollen 3.50 out of 12
Air Quality Not available.
Flu Activity Not available.
METAR KONP 020135Z AUTO 35011KT 10SM CLR 18/16 A3004 RMK AO2

More Conditions Fewer Conditions

Pressure 30.04 in
Visibility 10.0 miles
Clouds Clear
Dew Point 62 °F
Humidity 85%
Rainfall 0.00 in
Snow Depth Not available.
UV 1 out of 12
Pollen 3.50 out of 12
Air Quality Not available.
Flu Activity Not available.
METAR KONP 020135Z AUTO 35011KT 10SM CLR 18/16 A3004 RMK AO2

More Conditions Fewer Conditions

10-Day Weather Forecast

Almanac

Astronomy

Sep. 01, 2014 Rise Set
Actual Time 6:38 AM PDT 7:52 PM PDT
Civil Twilight 6:08 AM PDT 8:22 PM PDT
Nautical Twilight 5:32 AM PDT 8:58 PM PDT
Astronomical Twilight 4:53 AM PDT 9:36 PM PDT
Moon 1:46 PM PDT (9/1) 11:41 PM PDT (9/1)
Length of Visible Light 14h 14m
Length of Day
13h 13m
Tomorrow will be 3m 0s shorter.
Waxing Crescent, 46% of the Moon is Illuminated
Today
Waxing Crescent
Sep 2
First Quarter
Sep 8
Full
Sep 15
Last Quarter
Sep 24
New

Today's Extremes

State Highs State Lows

Community

WunderPhotos

Upload Photos

1,749,493 photos uploaded!

Nearby

Snow Depth

Station Depth Elevation
Holland Meadows 0 in 4900 ft
Peavine Ridge 4 in 3500 ft
Hogg Pass 0 in 4760 ft
Mckenzie 0 in 4800 ft
Roaring River 0 in 4900 ft

Earthquake Activity

City Distance Mag. Time & Date
No recent earthquake activity has been reported nearby.
Minimum magnitude displayed is 2.5.

Coastal Water Temperatures

Place Temperature
South Beach, OR 53.1 °F
Charleston, OR 54.0 °F

Nearby Weather Stations